Time;durP1;ratioP1;P1;durP2;ratioP2;P2;SDS_P1;SDS_P2;PMS_P1;PMS_P2;Temp;Humidity;BMP_temperature;BMP_pressure;BME280_temperature;BME280_humidity;BME280_pressure;Samples;Min_cycle;Max_cycle;Signal;HPM_P1;HPM_P2
2023/07/15 04:01:09;;;;;;;2.40;2.20;;;19.30;99.90;;;;;;5679621;23;20479;-71
2023/07/15 04:03:35;;;;;;;2.00;1.90;;;19.40;99.90;;;;;;4991700;28;20486;-72
2023/07/15 04:06:03;;;;;;;1.77;1.67;;;19.50;99.90;;;;;;4990810;28;20482;-71
2023/07/15 04:08:30;;;;;;;1.73;1.73;;;19.50;99.90;;;;;;4991451;28;20935;-71
2023/07/15 04:10:56;;;;;;;1.40;1.40;;;19.60;99.90;;;;;;4991240;28;20494;-71
2023/07/15 04:13:23;;;;;;;1.20;1.20;;;19.60;99.90;;;;;;5017619;23;20471;-68
2023/07/15 04:15:50;;;;;;;1.70;1.30;;;19.70;99.90;;;;;;5011087;28;20473;-69
2023/07/15 04:18:18;;;;;;;1.80;1.70;;;19.70;99.90;;;;;;5012093;28;20848;-69
2023/07/15 04:20:45;;;;;;;1.33;1.23;;;19.70;99.90;;;;;;5011873;28;20473;-69
2023/07/15 04:23:11;;;;;;;1.30;1.30;;;19.70;99.90;;;;;;5011888;28;20583;-70
2023/07/15 04:25:39;;;;;;;2.00;1.90;;;19.70;99.90;;;;;;4992119;28;20469;-69
2023/07/15 04:28:06;;;;;;;1.57;1.53;;;19.70;99.90;;;;;;4992207;28;20525;-69
2023/07/15 04:30:33;;;;;;;1.60;1.50;;;19.70;99.90;;;;;;4992037;28;20463;-69
2023/07/15 04:33:00;;;;;;;1.73;1.63;;;19.70;99.90;;;;;;4992470;28;20523;-69
2023/07/15 04:35:28;;;;;;;1.33;1.33;;;19.70;99.90;;;;;;4990737;28;20485;-69
2023/07/15 04:37:55;;;;;;;2.00;1.90;;;19.70;99.90;;;;;;4991760;28;20463;-69
2023/07/15 04:40:22;;;;;;;1.50;1.50;;;19.70;99.90;;;;;;4991914;28;20482;-69
2023/07/15 04:42:48;;;;;;;3.60;2.20;;;20.10;99.90;;;;;;4987471;28;20815;-70
2023/07/15 04:45:15;;;;;;;2.17;2.07;;;20.70;99.90;;;;;;4988628;28;20483;-69
2023/07/15 04:47:42;;;;;;;2.07;1.97;;;21.20;99.90;;;;;;4992667;28;20471;-69
2023/07/15 04:50:10;;;;;;;1.90;1.90;;;21.80;99.90;;;;;;4991445;28;20561;-69
2023/07/15 04:52:38;;;;;;;2.10;2.10;;;22.20;99.90;;;;;;4992125;28;21100;-69
2023/07/15 04:55:05;;;;;;;1.40;1.40;;;22.50;99.90;;;;;;4991787;28;20507;-69
2023/07/15 04:57:32;;;;;;;1.57;1.47;;;22.80;99.90;;;;;;4991720;28;20500;-69
2023/07/15 04:59:59;;;;;;;1.63;1.53;;;23.20;99.90;;;;;;4991368;28;20469;-69
2023/07/15 05:02:25;;;;;;;1.67;1.67;;;23.40;99.90;;;;;;4991617;28;20466;-69
2023/07/15 05:04:52;;;;;;;1.43;1.43;;;23.20;99.90;;;;;;4990619;28;20744;-69
2023/07/15 05:07:19;;;;;;;1.77;1.73;;;23.40;99.90;;;;;;4991073;28;20471;-69
2023/07/15 05:09:49;;;;;;;1.60;1.60;;;23.70;99.90;;;;;;4991476;28;20464;-69
2023/07/15 05:12:16;;;;;;;1.60;1.50;;;23.90;99.90;;;;;;4990948;28;20488;-69
2023/07/15 05:14:42;;;;;;;1.77;1.70;;;24.10;99.90;;;;;;4990756;28;20505;-69
2023/07/15 05:17:09;;;;;;;1.67;1.67;;;24.10;99.90;;;;;;4990951;28;20461;-69
2023/07/15 05:19:36;;;;;;;1.50;1.50;;;23.90;99.90;;;;;;4990644;28;20464;-69
2023/07/15 05:22:02;;;;;;;1.60;1.50;;;24.00;99.90;;;;;;4991336;28;20464;-69
2023/07/15 05:24:29;;;;;;;1.93;1.83;;;23.80;99.90;;;;;;4990931;28;20488;-69
2023/07/15 05:26:57;;;;;;;1.70;1.70;;;24.00;99.90;;;;;;4990950;28;20503;-69
2023/07/15 05:29:24;;;;;;;1.33;1.33;;;24.10;99.90;;;;;;4991009;28;20468;-69
2023/07/15 05:31:51;;;;;;;2.43;2.23;;;24.40;99.90;;;;;;4990836;28;20496;-68
2023/07/15 05:34:18;;;;;;;1.30;1.30;;;24.40;99.90;;;;;;4990626;28;20965;-68
2023/07/15 05:36:44;;;;;;;3.37;1.50;;;24.30;99.90;;;;;;4991080;28;20971;-68
2023/07/15 05:39:11;;;;;;;1.30;1.23;;;24.50;99.90;;;;;;4991554;28;20463;-68
2023/07/15 05:41:38;;;;;;;1.80;1.80;;;24.70;99.90;;;;;;4990948;28;20458;-68
2023/07/15 05:44:06;;;;;;;1.57;1.57;;;24.90;99.90;;;;;;4990423;28;20508;-68
2023/07/15 05:46:34;;;;;;;2.50;2.37;;;24.90;99.90;;;;;;4990578;28;20458;-67
2023/07/15 05:49:03;;;;;;;2.73;2.17;;;24.80;99.90;;;;;;4990399;28;20474;-68
2023/07/15 05:51:29;;;;;;;1.57;1.57;;;24.80;99.90;;;;;;4990508;28;20492;-68
2023/07/15 05:53:56;;;;;;;1.83;1.70;;;24.70;99.90;;;;;;4990311;28;20493;-69
2023/07/15 05:56:23;;;;;;;1.80;1.80;;;24.50;99.90;;;;;;4990227;28;20469;-69
2023/07/15 05:58:50;;;;;;;1.47;1.47;;;24.30;99.90;;;;;;4990426;28;20832;-69
2023/07/15 06:01:18;;;;;;;1.67;1.57;;;24.10;99.90;;;;;;4990647;28;20477;-69
2023/07/15 06:03:44;;;;;;;2.47;2.30;;;24.10;99.90;;;;;;4990348;28;20581;-69
2023/07/15 06:06:12;;;;;;;1.30;1.30;;;24.40;99.90;;;;;;4989824;28;20811;-69
2023/07/15 06:08:39;;;;;;;2.00;1.73;;;25.00;99.90;;;;;;4990635;28;20464;-69
2023/07/15 06:11:06;;;;;;;1.80;1.70;;;25.50;99.90;;;;;;4989996;28;20473;-69
2023/07/15 06:13:33;;;;;;;1.40;1.40;;;26.00;99.90;;;;;;4989994;28;20494;-69
2023/07/15 06:16:00;;;;;;;1.37;1.37;;;26.40;99.90;;;;;;4990192;28;20463;-69
2023/07/15 06:18:28;;;;;;;1.60;1.60;;;26.80;99.90;;;;;;4990480;28;20513;-68
2023/07/15 06:20:55;;;;;;;1.63;1.63;;;27.00;99.90;;;;;;4989640;28;20462;-68
2023/07/15 06:23:21;;;;;;;1.57;1.57;;;27.20;99.90;;;;;;4991280;28;20961;-69
2023/07/15 06:25:48;;;;;;;1.80;1.80;;;27.40;99.90;;;;;;4995905;28;20561;-68
2023/07/15 06:28:15;;;;;;;1.60;1.50;;;27.60;99.90;;;;;;4996837;28;20470;-68
2023/07/15 06:30:42;;;;;;;2.00;2.00;;;27.20;99.90;;;;;;4997009;28;20495;-68
2023/07/15 06:33:08;;;;;;;1.23;1.23;;;27.20;99.90;;;;;;4996568;28;20517;-69
2023/07/15 06:35:36;;;;;;;1.53;1.53;;;27.50;99.90;;;;;;4995827;28;20493;-67
2023/07/15 06:38:03;;;;;;;2.43;1.67;;;27.80;99.90;;;;;;4996520;28;20467;-69
2023/07/15 06:40:30;;;;;;;1.80;1.80;;;28.00;99.90;;;;;;4995916;28;20848;-68
2023/07/15 06:42:56;;;;;;;1.40;1.40;;;28.30;99.90;;;;;;4990910;28;20467;-68
2023/07/15 06:45:32;;;;;;;1.60;1.60;;;28.80;99.90;;;;;;4995107;28;20490;-70
2023/07/15 06:47:59;;;;;;;1.57;1.57;;;28.90;99.90;;;;;;4996808;28;20839;-67
2023/07/15 06:50:26;;;;;;;1.33;1.33;;;29.30;99.90;;;;;;4995882;28;20851;-68
2023/07/15 06:52:54;;;;;;;1.53;1.53;;;29.80;99.90;;;;;;4996373;28;20494;-67
2023/07/15 06:55:20;;;;;;;1.90;1.80;;;29.90;99.90;;;;;;4995828;28;20491;-68
2023/07/15 06:57:48;;;;;;;1.63;1.63;;;30.10;99.90;;;;;;4996517;28;20558;-68
2023/07/15 07:00:15;;;;;;;1.70;1.70;;;30.20;99.90;;;;;;4996645;28;20489;-67
2023/07/15 07:02:41;;;;;;;1.63;1.63;;;30.00;99.90;;;;;;4996489;28;20570;-68
2023/07/15 07:05:08;;;;;;;1.70;1.53;;;30.10;99.90;;;;;;4995461;28;20592;-68
2023/07/15 07:07:35;;;;;;;1.10;1.10;;;30.40;99.90;;;;;;4996023;28;20462;-68
2023/07/15 07:10:03;;;;;;;1.57;1.57;;;30.60;99.90;;;;;;4995924;28;20854;-68
2023/07/15 07:12:30;;;;;;;1.30;1.30;;;30.70;99.90;;;;;;4996258;28;20840;-68
2023/07/15 07:14:57;;;;;;;1.23;1.23;;;30.80;99.60;;;;;;4995946;28;20485;-67
2023/07/15 07:17:23;;;;;;;1.43;1.43;;;30.80;99.70;;;;;;4996507;28;20463;-67
2023/07/15 07:19:50;;;;;;;1.53;1.43;;;30.80;99.90;;;;;;4996448;28;20463;-67
2023/07/15 07:22:17;;;;;;;1.60;1.50;;;31.10;99.90;;;;;;4997024;28;20455;-68
2023/07/15 07:24:44;;;;;;;1.07;1.07;;;31.30;99.30;;;;;;4996531;28;20487;-67
2023/07/15 07:27:12;;;;;;;1.10;1.10;;;31.00;99.20;;;;;;4997062;28;20462;-67
2023/07/15 07:29:40;;;;;;;1.20;1.20;;;31.10;99.20;;;;;;4996099;28;20525;-68
2023/07/15 07:32:07;;;;;;;1.60;1.50;;;31.10;99.40;;;;;;4995747;28;20513;-68
2023/07/15 07:34:34;;;;;;;1.20;1.20;;;31.40;99.20;;;;;;4995104;28;20482;-67
2023/07/15 07:37:00;;;;;;;1.20;1.20;;;31.70;98.80;;;;;;4992820;28;20459;-68
2023/07/15 07:39:27;;;;;;;1.60;1.60;;;31.30;98.70;;;;;;4993275;28;20489;-68
2023/07/15 07:41:55;;;;;;;1.40;1.40;;;31.20;98.70;;;;;;4992609;28;20486;-68
2023/07/15 07:44:23;;;;;;;3.07;1.60;;;31.00;99.00;;;;;;4992098;28;21002;-68
2023/07/15 07:46:50;;;;;;;1.20;1.20;;;31.20;98.80;;;;;;4992501;28;20462;-68
2023/07/15 07:49:17;;;;;;;1.30;1.30;;;31.50;98.80;;;;;;4992026;28;20989;-67
2023/07/15 07:51:43;;;;;;;1.20;1.20;;;31.60;98.80;;;;;;4992680;28;20473;-68
2023/07/15 07:54:10;;;;;;;1.30;1.30;;;31.60;98.40;;;;;;4992305;28;20505;-68
2023/07/15 07:56:37;;;;;;;1.17;1.17;;;31.80;98.50;;;;;;4991978;28;20502;-68
2023/07/15 07:59:04;;;;;;;1.10;1.10;;;32.00;98.20;;;;;;4992706;28;20463;-68
2023/07/15 08:04:15;;;;;;;1.00;1.00;;;32.00;98.20;;;;;;4990070;28;20489;-68
2023/07/15 08:06:42;;;;;;;1.20;1.20;;;31.70;98.00;;;;;;4992789;28;20981;-68
2023/07/15 08:09:09;;;;;;;1.33;1.33;;;31.60;98.00;;;;;;4992449;28;20951;-68
2023/07/15 08:11:36;;;;;;;1.70;1.70;;;31.90;98.10;;;;;;4991986;28;21024;-69
2023/07/15 08:14:03;;;;;;;1.50;1.40;;;32.30;97.60;;;;;;4992414;28;20494;-68
2023/07/15 08:16:35;;;;;;;1.20;1.20;;;32.50;97.60;;;;;;4992414;28;20566;-69
2023/07/15 08:19:02;;;;;;;1.50;1.40;;;32.60;97.00;;;;;;4992736;28;20470;-68
2023/07/15 08:21:29;;;;;;;1.07;1.07;;;32.80;97.70;;;;;;4992845;28;20823;-69
2023/07/15 08:23:56;;;;;;;1.10;1.10;;;32.90;97.00;;;;;;4992762;28;20494;-68
2023/07/15 08:26:23;;;;;;;1.10;1.10;;;33.10;96.80;;;;;;4992372;28;20843;-69
2023/07/15 08:28:50;;;;;;;1.00;1.00;;;32.90;96.60;;;;;;4992621;28;20474;-68
2023/07/15 08:31:17;;;;;;;1.00;1.00;;;33.00;96.60;;;;;;4992827;28;20467;-69
2023/07/15 08:33:45;;;;;;;1.10;1.10;;;32.70;96.10;;;;;;4993024;28;20498;-68
2023/07/15 08:36:12;;;;;;;0.97;0.97;;;32.10;97.00;;;;;;4992190;28;20463;-68
2023/07/15 08:38:38;;;;;;;0.80;0.80;;;32.40;96.60;;;;;;4992624;28;20471;-68
2023/07/15 08:41:05;;;;;;;1.37;1.37;;;32.70;96.80;;;;;;4992382;28;20469;-68
2023/07/15 08:43:32;;;;;;;1.10;1.10;;;32.70;96.30;;;;;;4992117;28;20463;-68
2023/07/15 08:46:02;;;;;;;1.50;1.50;;;32.70;96.60;;;;;;4991923;28;20463;-68
2023/07/15 08:48:29;;;;;;;0.93;0.93;;;32.60;96.60;;;;;;4992089;28;20486;-68
2023/07/15 08:50:58;;;;;;;1.13;1.13;;;32.40;96.70;;;;;;4992022;28;20467;-69
2023/07/15 08:53:26;;;;;;;0.90;0.90;;;32.30;96.50;;;;;;4992045;28;21010;-68
2023/07/15 08:55:55;;;;;;;1.40;1.40;;;32.20;97.20;;;;;;4991169;28;20463;-68
2023/07/15 08:58:22;;;;;;;1.50;1.50;;;32.10;96.90;;;;;;4992379;28;20463;-68
2023/07/15 09:00:50;;;;;;;1.20;1.20;;;31.80;96.50;;;;;;4992416;28;20471;-68
2023/07/15 09:03:16;;;;;;;1.17;1.10;;;31.30;97.00;;;;;;4981615;28;21059;-68
2023/07/15 09:05:44;;;;;;;1.00;1.00;;;31.10;97.40;;;;;;4984039;28;20467;-69
2023/07/15 09:08:13;;;;;;;1.43;1.43;;;31.10;97.70;;;;;;4987281;28;20529;-69
2023/07/15 09:10:51;;;;;;;1.17;1.10;;;31.00;97.60;;;;;;4985886;28;20936;-68
2023/07/15 09:13:23;;;;;;;1.10;1.10;;;30.90;97.70;;;;;;4982455;28;20486;-68
2023/07/15 09:15:50;;;;;;;1.00;1.00;;;30.90;97.70;;;;;;4992159;28;20452;-68
2023/07/15 09:18:16;;;;;;;1.03;1.03;;;31.00;98.20;;;;;;4991597;28;20474;-68
2023/07/15 09:20:43;;;;;;;1.40;1.40;;;31.20;98.20;;;;;;4991188;28;20462;-69
2023/07/15 09:23:12;;;;;;;0.87;0.87;;;31.30;97.90;;;;;;4991355;28;21142;-68
2023/07/15 09:25:38;;;;;;;1.30;1.30;;;31.00;97.80;;;;;;4982146;28;20565;-69
2023/07/15 09:28:09;;;;;;;1.00;1.00;;;30.80;97.70;;;;;;4991501;28;20554;-68
2023/07/15 09:30:40;;;;;;;1.60;1.50;;;30.80;98.00;;;;;;4985040;28;20535;-68
2023/07/15 09:33:07;;;;;;;1.37;1.37;;;30.80;97.60;;;;;;4988916;28;20533;-68
2023/07/15 09:35:37;;;;;;;1.20;1.20;;;30.70;97.40;;;;;;4990374;28;21017;-69
2023/07/15 09:38:03;;;;;;;0.97;0.97;;;30.60;97.70;;;;;;4991345;28;20947;-67
2023/07/15 09:40:43;;;;;;;1.10;1.10;;;30.60;97.90;;;;;;4991073;28;20463;-67
2023/07/15 09:43:10;;;;;;;1.20;1.20;;;30.70;98.10;;;;;;4985817;28;20475;-68
2023/07/15 09:45:38;;;;;;;1.07;0.90;;;30.90;97.70;;;;;;4989730;28;20578;-68
2023/07/15 09:48:06;;;;;;;0.90;0.90;;;30.80;97.50;;;;;;4986183;28;20467;-67
2023/07/15 09:50:34;;;;;;;1.27;1.27;;;30.80;97.60;;;;;;4987052;28;20482;-67
2023/07/15 09:53:01;;;;;;;1.40;1.07;;;30.90;97.60;;;;;;4991419;28;20541;-67
2023/07/15 09:55:29;;;;;;;1.30;1.30;;;31.10;98.00;;;;;;4990944;28;20483;-68
2023/07/15 09:58:05;;;;;;;1.07;1.07;;;31.30;97.80;;;;;;4991053;28;20892;-67
2023/07/15 10:00:35;;;;;;;0.97;0.97;;;31.30;97.70;;;;;;4990943;28;20478;-68
2023/07/15 10:03:03;;;;;;;1.30;1.30;;;31.50;96.90;;;;;;4987858;28;20463;-68
2023/07/15 10:05:31;;;;;;;1.00;1.00;;;31.40;96.60;;;;;;4989001;28;20858;-68
2023/07/15 10:07:59;;;;;;;0.93;0.93;;;31.40;96.80;;;;;;4991123;28;20467;-67
2023/07/15 10:10:27;;;;;;;1.00;1.00;;;31.30;96.10;;;;;;4990596;28;20599;-67
2023/07/15 10:12:54;;;;;;;0.90;0.90;;;31.30;96.20;;;;;;4990946;28;20489;-67
2023/07/15 10:15:23;;;;;;;1.00;1.00;;;31.30;96.20;;;;;;4990092;28;20506;-68
2023/07/15 10:17:50;;;;;;;1.10;1.10;;;31.50;96.00;;;;;;4990850;28;20480;-68
2023/07/15 10:20:17;;;;;;;0.90;0.90;;;31.50;95.80;;;;;;4990796;28;20492;-68
2023/07/15 10:22:44;;;;;;;0.73;0.73;;;31.50;95.80;;;;;;4989523;28;20886;-67
2023/07/15 10:25:15;;;;;;;4.90;1.37;;;31.50;95.90;;;;;;4989332;28;20509;-69
2023/07/15 10:27:41;;;;;;;1.00;1.00;;;31.50;95.70;;;;;;4990789;28;20463;-69
2023/07/15 10:30:21;;;;;;;0.93;0.93;;;31.60;95.70;;;;;;4991071;28;20778;-67
2023/07/15 10:33:12;;;;;;;0.70;0.70;;;31.70;96.00;;;;;;4990840;28;20467;-68
2023/07/15 10:35:52;;;;;;;0.63;0.63;;;32.00;95.70;;;;;;4978567;28;20482;-68
2023/07/15 10:38:27;;;;;;;1.10;1.10;;;32.00;96.00;;;;;;4983652;28;20954;-70
2023/07/15 10:40:57;;;;;;;0.77;0.77;;;32.20;95.70;;;;;;4990259;28;20465;-69
2023/07/15 10:43:25;;;;;;;1.07;1.07;;;32.20;95.60;;;;;;4990023;28;20469;-69
2023/07/15 10:45:53;;;;;;;0.80;0.80;;;32.00;95.70;;;;;;4990303;28;20822;-69
2023/07/15 10:48:22;;;;;;;0.80;0.80;;;32.20;95.90;;;;;;4989289;28;20474;-69
2023/07/15 10:50:51;;;;;;;0.90;0.90;;;32.30;95.60;;;;;;4990099;28;20974;-69
2023/07/15 10:53:21;;;;;;;1.03;1.03;;;32.20;95.70;;;;;;4990724;28;20495;-68
2023/07/15 10:55:54;;;;;;;1.13;1.13;;;32.10;95.80;;;;;;4989977;28;20497;-69
2023/07/15 10:58:21;;;;;;;0.87;0.87;;;31.90;95.90;;;;;;4990854;28;20952;-69
2023/07/15 11:00:48;;;;;;;0.73;0.73;;;31.60;96.10;;;;;;4989154;28;20931;-68
2023/07/15 11:03:15;;;;;;;0.67;0.67;;;31.50;96.10;;;;;;4990605;28;20478;-69
2023/07/15 11:05:43;;;;;;;1.00;1.00;;;31.50;96.40;;;;;;4990149;28;20463;-68
2023/07/15 11:08:10;;;;;;;1.00;1.00;;;31.40;96.70;;;;;;4990527;28;20838;-68
2023/07/15 11:10:37;;;;;;;0.87;0.87;;;31.30;96.70;;;;;;4992148;28;20463;-69
2023/07/15 11:13:12;;;;;;;1.03;1.03;;;31.20;97.00;;;;;;4993650;28;20471;-68
2023/07/15 11:15:39;;;;;;;0.90;0.90;;;31.30;97.10;;;;;;4993855;28;20908;-69
2023/07/15 11:18:05;;;;;;;0.87;0.87;;;31.20;96.90;;;;;;4994547;28;20459;-69
2023/07/15 11:20:33;;;;;;;0.93;0.93;;;31.30;97.70;;;;;;4994331;28;20463;-69
2023/07/15 11:23:01;;;;;;;1.20;1.20;;;31.40;97.40;;;;;;4994608;28;20470;-69
2023/07/15 11:25:29;;;;;;;0.97;0.97;;;31.60;97.30;;;;;;4993379;28;20573;-69
2023/07/15 11:28:00;;;;;;;0.73;0.73;;;31.60;97.10;;;;;;4994624;28;20516;-69
2023/07/15 11:30:33;;;;;;;0.70;0.70;;;31.80;96.80;;;;;;4995288;28;20894;-69
2023/07/15 11:33:00;;;;;;;1.50;1.40;;;32.00;97.20;;;;;;4993682;28;20466;-68
2023/07/15 11:35:31;;;;;;;1.20;1.20;;;31.90;96.80;;;;;;4993358;28;20824;-69
2023/07/15 11:37:57;;;;;;;1.10;1.10;;;31.90;96.70;;;;;;4992158;28;20471;-69
2023/07/15 11:40:25;;;;;;;1.30;1.30;;;32.00;96.80;;;;;;4992850;28;20464;-68
2023/07/15 11:42:52;;;;;;;1.37;1.37;;;32.10;96.90;;;;;;4989092;28;20464;-68
2023/07/15 11:45:23;;;;;;;1.20;1.20;;;32.00;96.70;;;;;;4992902;28;20482;-69
2023/07/15 11:47:53;;;;;;;1.10;1.10;;;31.90;97.00;;;;;;4993491;28;20524;-69
2023/07/15 11:50:24;;;;;;;0.80;0.80;;;32.00;97.40;;;;;;4991920;28;20499;-69
2023/07/15 11:52:51;;;;;;;1.07;1.07;;;31.90;96.90;;;;;;4993378;28;20467;-70
2023/07/15 11:55:25;;;;;;;1.03;1.03;;;31.80;96.90;;;;;;4992552;28;21033;-69
2023/07/15 11:57:52;;;;;;;1.03;1.03;;;31.80;97.20;;;;;;4993144;28;20462;-69
2023/07/15 12:00:26;;;;;;;1.30;1.30;;;31.80;97.70;;;;;;4992028;28;20466;-69
2023/07/15 12:02:54;;;;;;;0.87;0.87;;;31.60;97.30;;;;;;4991140;28;20463;-68
2023/07/15 12:05:20;;;;;;;1.40;1.30;;;31.60;97.70;;;;;;4992301;28;20479;-68
2023/07/15 12:07:49;;;;;;;1.00;1.00;;;31.50;97.80;;;;;;4993534;28;20467;-68
2023/07/15 12:10:17;;;;;;;1.30;1.30;;;31.50;97.90;;;;;;4993163;28;20610;-68
2023/07/15 12:12:45;;;;;;;1.37;1.37;;;31.50;98.30;;;;;;4989219;28;20503;-69
2023/07/15 12:15:15;;;;;;;1.30;1.30;;;31.70;98.20;;;;;;4987487;28;20529;-67
2023/07/15 12:17:41;;;;;;;1.10;1.10;;;31.60;98.20;;;;;;4993110;28;20832;-67
2023/07/15 12:20:09;;;;;;;1.10;1.10;;;31.60;97.90;;;;;;4992230;28;20823;-68
2023/07/15 12:22:36;;;;;;;1.33;1.23;;;31.60;98.70;;;;;;4987399;28;20582;-67
2023/07/15 12:25:03;;;;;;;1.40;1.40;;;31.50;98.60;;;;;;4987102;28;20581;-67
2023/07/15 12:27:31;;;;;;;1.13;1.13;;;31.40;99.20;;;;;;4992567;28;20463;-67
2023/07/15 12:29:59;;;;;;;1.30;1.30;;;31.40;99.20;;;;;;4992763;28;21009;-67
2023/07/15 12:32:26;;;;;;;1.73;1.63;;;31.30;99.10;;;;;;4992859;28;20617;-68
2023/07/15 12:34:53;;;;;;;1.33;1.30;;;31.20;99.50;;;;;;4991106;28;20517;-67
2023/07/15 12:37:20;;;;;;;0.93;0.93;;;30.90;99.70;;;;;;4992679;28;20963;-68
2023/07/15 12:39:46;;;;;;;1.13;1.13;;;30.80;99.80;;;;;;4992749;28;20463;-67
2023/07/15 12:42:13;;;;;;;1.40;1.40;;;30.60;99.90;;;;;;4991689;28;20570;-67
2023/07/15 12:44:40;;;;;;;1.30;1.30;;;30.40;99.90;;;;;;4991995;28;20502;-67
2023/07/15 12:47:08;;;;;;;1.33;1.33;;;30.30;99.90;;;;;;4980954;28;20503;-67
2023/07/15 12:49:35;;;;;;;1.43;1.43;;;30.10;99.90;;;;;;4992302;28;20459;-67
2023/07/15 12:52:02;;;;;;;2.20;1.40;;;30.00;99.90;;;;;;4992556;28;20823;-67
2023/07/15 12:54:29;;;;;;;1.57;1.47;;;29.70;99.90;;;;;;4992540;28;20518;-67
2023/07/15 12:56:55;;;;;;;1.50;1.50;;;29.50;99.90;;;;;;4992690;28;20942;-68
2023/07/15 12:59:22;;;;;;;1.53;1.53;;;29.20;99.90;;;;;;4991313;28;20476;-68
2023/07/15 13:01:49;;;;;;;1.80;1.70;;;29.20;99.90;;;;;;4992169;28;20465;-67
2023/07/15 13:04:17;;;;;;;1.17;1.17;;;29.00;99.90;;;;;;4991697;28;20864;-67
2023/07/15 13:06:44;;;;;;;3.23;1.70;;;28.90;99.90;;;;;;4992526;28;20463;-67
2023/07/15 13:09:10;;;;;;;1.37;1.27;;;28.60;99.90;;;;;;4992488;28;20465;-68
2023/07/15 13:11:38;;;;;;;1.17;1.17;;;28.40;99.90;;;;;;4991956;28;20472;-67
2023/07/15 13:14:05;;;;;;;1.40;1.30;;;28.10;99.90;;;;;;4987739;28;20497;-67
2023/07/15 13:16:32;;;;;;;1.33;1.33;;;27.80;99.90;;;;;;4992531;28;21014;-67
2023/07/15 13:18:59;;;;;;;1.40;0.90;;;27.70;99.90;;;;;;4991841;28;20472;-67
2023/07/15 13:21:27;;;;;;;0.90;0.90;;;27.50;99.90;;;;;;4991988;28;20463;-68
2023/07/15 13:23:53;;;;;;;1.43;1.43;;;27.30;99.90;;;;;;4991998;28;20518;-67
2023/07/15 13:26:20;;;;;;;0.93;0.93;;;27.00;99.90;;;;;;4991543;28;20469;-67
2023/07/15 13:28:47;;;;;;;1.30;1.30;;;26.90;99.90;;;;;;4989317;28;20496;-67
2023/07/15 13:31:14;;;;;;;0.80;0.80;;;26.90;99.90;;;;;;4991586;28;20462;-67
2023/07/15 13:33:40;;;;;;;1.13;1.13;;;26.60;99.90;;;;;;4991584;28;20481;-67
2023/07/15 13:36:09;;;;;;;0.80;0.80;;;26.30;99.90;;;;;;4991535;28;20810;-68
2023/07/15 13:38:41;;;;;;;0.67;0.67;;;26.20;99.90;;;;;;4992256;28;20830;-68
2023/07/15 13:41:08;;;;;;;0.53;0.53;;;26.10;99.90;;;;;;4990808;28;20481;-68
2023/07/15 13:43:35;;;;;;;0.40;0.40;;;26.00;99.90;;;;;;4991389;28;20480;-68
2023/07/15 13:46:01;;;;;;;0.80;0.80;;;25.90;99.90;;;;;;4991694;28;20461;-68
2023/07/15 13:48:29;;;;;;;1.00;1.00;;;25.90;99.90;;;;;;4991590;28;20821;-68
2023/07/15 13:50:55;;;;;;;0.67;0.63;;;25.90;99.90;;;;;;4990794;28;20473;-68
2023/07/15 13:53:22;;;;;;;0.83;0.83;;;25.80;99.90;;;;;;4984631;28;20481;-68
2023/07/15 13:55:50;;;;;;;0.80;0.80;;;25.80;99.90;;;;;;4990010;28;20861;-68
2023/07/15 13:58:17;;;;;;;0.90;0.90;;;25.80;99.90;;;;;;4991451;28;20474;-68
2023/07/15 14:00:44;;;;;;;0.83;0.83;;;25.80;99.90;;;;;;4991013;28;20488;-68
2023/07/15 14:03:11;;;;;;;0.97;0.97;;;25.90;99.90;;;;;;4991128;28;20462;-68
2023/07/15 14:05:38;;;;;;;1.23;1.23;;;25.90;99.90;;;;;;4989726;28;20486;-68
2023/07/15 14:08:05;;;;;;;0.90;0.90;;;25.90;99.90;;;;;;4989309;28;20474;-68
2023/07/15 14:10:32;;;;;;;0.83;0.83;;;26.00;99.90;;;;;;4989952;28;20455;-68
2023/07/15 14:13:00;;;;;;;0.70;0.70;;;26.00;99.90;;;;;;4991133;28;20470;-68
2023/07/15 14:15:26;;;;;;;0.70;0.70;;;26.00;99.90;;;;;;4990216;28;20499;-68
2023/07/15 14:17:55;;;;;;;0.70;0.70;;;26.00;99.90;;;;;;4991148;28;20485;-68
2023/07/15 14:20:22;;;;;;;1.10;1.10;;;26.20;99.90;;;;;;4989636;28;20613;-68
2023/07/15 14:22:49;;;;;;;0.67;0.67;;;26.20;99.90;;;;;;4991123;28;20819;-68
2023/07/15 14:25:15;;;;;;;1.33;1.17;;;26.30;99.90;;;;;;4990098;28;20486;-68
2023/07/15 14:27:42;;;;;;;0.90;0.90;;;26.40;99.90;;;;;;4990749;28;20463;-68
2023/07/15 14:30:11;;;;;;;0.83;0.83;;;26.60;99.90;;;;;;4991036;28;20494;-68
2023/07/15 14:32:38;;;;;;;0.70;0.70;;;26.50;99.90;;;;;;4991516;28;20585;-68
2023/07/15 14:35:07;;;;;;;0.70;0.70;;;26.50;99.90;;;;;;4989009;28;20491;-68
2023/07/15 14:37:33;;;;;;;1.37;0.90;;;26.40;99.90;;;;;;4990504;28;20465;-68
2023/07/15 14:40:00;;;;;;;0.97;0.97;;;26.30;99.90;;;;;;4990307;28;20471;-68
2023/07/15 14:42:27;;;;;;;1.00;1.00;;;26.30;99.90;;;;;;4991194;28;20490;-68
2023/07/15 14:44:53;;;;;;;0.90;0.90;;;26.30;99.90;;;;;;4992070;28;20486;-68
2023/07/15 14:47:22;;;;;;;0.70;0.70;;;26.40;99.90;;;;;;4995737;28;20940;-68
2023/07/15 14:49:48;;;;;;;1.13;0.87;;;26.60;99.90;;;;;;4993704;28;20478;-68
2023/07/15 14:52:15;;;;;;;0.90;0.90;;;26.70;99.90;;;;;;4994882;28;20464;-68
2023/07/15 14:54:42;;;;;;;0.50;0.50;;;26.90;99.90;;;;;;4994490;28;20610;-68
2023/07/15 14:57:08;;;;;;;0.63;0.63;;;27.00;99.90;;;;;;4994194;28;20559;-68
2023/07/15 14:59:35;;;;;;;0.50;0.50;;;26.90;99.90;;;;;;4994854;28;20842;-68
2023/07/15 15:02:02;;;;;;;1.00;1.00;;;26.90;99.90;;;;;;4993882;28;20547;-68
2023/07/15 15:04:30;;;;;;;0.90;0.90;;;27.00;99.90;;;;;;4993582;28;20490;-68
2023/07/15 15:06:57;;;;;;;1.00;1.00;;;27.10;99.90;;;;;;4994982;28;20881;-67
2023/07/15 15:09:24;;;;;;;1.10;1.10;;;27.20;99.90;;;;;;4995485;28;20519;-67
2023/07/15 15:11:51;;;;;;;0.63;0.63;;;27.30;99.90;;;;;;4994919;28;20464;-68
2023/07/15 15:14:21;;;;;;;0.83;0.83;;;27.40;99.90;;;;;;4994612;28;20497;-68
2023/07/15 15:16:48;;;;;;;0.90;0.90;;;27.40;99.90;;;;;;4992788;28;20474;-68
2023/07/15 15:19:14;;;;;;;0.77;0.77;;;27.60;99.90;;;;;;4992810;28;20572;-68
2023/07/15 15:21:42;;;;;;;0.97;0.97;;;27.70;99.90;;;;;;4994081;28;20463;-67
2023/07/15 15:24:09;;;;;;;0.80;0.80;;;27.70;99.90;;;;;;4992444;28;20490;-68
2023/07/15 15:26:36;;;;;;;1.20;1.20;;;27.70;99.90;;;;;;4989978;28;20558;-68
2023/07/15 15:29:03;;;;;;;1.10;1.10;;;27.60;99.90;;;;;;4987698;28;20467;-68
2023/07/15 15:31:30;;;;;;;0.60;0.60;;;27.70;99.90;;;;;;4994367;28;20499;-68
2023/07/15 15:33:56;;;;;;;0.93;0.93;;;27.80;99.90;;;;;;4995488;28;20826;-68
2023/07/15 15:36:24;;;;;;;1.17;0.90;;;27.90;99.90;;;;;;4996991;28;20494;-67
2023/07/15 15:38:52;;;;;;;1.70;1.27;;;28.00;99.90;;;;;;4996783;28;20475;-68
2023/07/15 15:41:19;;;;;;;1.10;1.10;;;28.00;99.90;;;;;;4991275;28;20805;-68
2023/07/15 15:43:46;;;;;;;0.80;0.80;;;28.30;99.90;;;;;;4989690;28;20491;-68
2023/07/15 15:46:12;;;;;;;1.80;0.90;;;28.50;99.90;;;;;;4985127;28;20921;-68
2023/07/15 15:48:39;;;;;;;0.50;0.50;;;28.40;99.90;;;;;;4993799;28;20518;-68
2023/07/15 15:51:06;;;;;;;0.60;0.60;;;28.20;99.90;;;;;;4992187;28;20468;-68
2023/07/15 15:53:35;;;;;;;0.70;0.70;;;28.20;99.90;;;;;;4993396;28;20539;-68
2023/07/15 15:56:03;;;;;;;1.10;1.10;;;28.10;99.90;;;;;;4991699;28;20491;-67
2023/07/15 15:58:31;;;;;;;0.60;0.60;;;27.90;99.90;;;;;;4993129;28;20499;-68
2023/07/15 16:00:58;;;;;;;0.87;0.87;;;27.80;99.90;;;;;;4992970;28;20473;-68
2023/07/15 16:03:24;;;;;;;0.70;0.70;;;27.70;99.90;;;;;;4992585;28;20475;-68
2023/07/15 16:05:51;;;;;;;0.70;0.70;;;27.60;99.90;;;;;;4992715;28;20456;-68
2023/07/15 16:08:18;;;;;;;0.83;0.83;;;27.70;99.90;;;;;;4993110;28;20497;-68
2023/07/15 16:10:45;;;;;;;1.03;1.03;;;27.80;99.90;;;;;;4991468;28;20472;-67
2023/07/15 16:13:13;;;;;;;1.10;1.10;;;27.70;99.90;;;;;;4993192;28;20548;-67
2023/07/15 16:15:39;;;;;;;0.83;0.83;;;27.60;99.90;;;;;;4992948;28;20493;-68
2023/07/15 16:18:06;;;;;;;0.67;0.67;;;27.50;99.90;;;;;;4992833;28;20905;-68
2023/07/15 16:20:36;;;;;;;1.43;1.43;;;27.40;99.90;;;;;;4991578;28;20552;-69
2023/07/15 16:23:04;;;;;;;0.90;0.90;;;27.30;99.90;;;;;;4995577;28;20716;-68
2023/07/15 16:25:31;;;;;;;1.23;1.23;;;27.10;99.90;;;;;;4999826;28;20477;-68
2023/07/15 16:31:20;;;;;;;1.60;1.53;;;26.90;99.90;;;;;;4993342;28;20419;-68
2023/07/15 16:33:47;;;;;;;0.70;0.70;;;26.90;99.90;;;;;;4989410;28;20523;-68
2023/07/15 16:36:14;;;;;;;0.90;0.90;;;26.80;99.90;;;;;;4991054;28;20494;-69
2023/07/15 16:38:40;;;;;;;1.20;1.20;;;26.80;99.90;;;;;;4992273;28;20474;-68
2023/07/15 16:41:07;;;;;;;0.90;0.90;;;26.80;99.90;;;;;;4990538;28;20486;-67
2023/07/15 16:43:35;;;;;;;0.77;0.77;;;26.80;99.90;;;;;;4988202;28;20473;-68
2023/07/15 16:46:03;;;;;;;1.13;1.13;;;26.70;99.90;;;;;;4987738;28;20470;-68
2023/07/15 16:48:31;;;;;;;1.23;1.23;;;26.70;99.90;;;;;;4992121;28;20470;-68
2023/07/15 16:50:57;;;;;;;1.03;0.90;;;26.70;99.90;;;;;;4991631;28;20954;-68
2023/07/15 16:53:24;;;;;;;1.00;1.00;;;26.80;99.90;;;;;;4990637;28;20478;-68
2023/07/15 16:55:51;;;;;;;1.07;1.07;;;26.80;99.90;;;;;;4991205;28;20878;-68